Time;durP1;ratioP1;P1;durP2;ratioP2;P2;SDS_P1;SDS_P2;PMS_P1;PMS_P2;Temp;Humidity;BMP_temperature;BMP_pressure;BME280_temperature;BME280_humidity;BME280_pressure;Samples;Min_cycle;Max_cycle;Signal;HPM_P1;HPM_P2
2022/09/30 00:01:50;;;;;;;10.30;7.95;;;8.60;99.90;;;;;;5023189;28;20037;-77
2022/09/30 00:04:22;;;;;;;9.20;8.00;;;8.60;99.90;;;;;;5007952;28;20071;-78
2022/09/30 00:06:51;;;;;;;10.80;8.52;;;8.60;99.90;;;;;;5022665;28;20056;-79
2022/09/30 00:09:18;;;;;;;11.95;9.13;;;8.50;99.90;;;;;;5024651;28;20041;-78
2022/09/30 00:11:45;;;;;;;10.27;8.77;;;8.60;99.90;;;;;;5023053;28;20045;-78
2022/09/30 00:14:20;;;;;;;10.75;9.32;;;8.60;99.90;;;;;;5021970;28;20037;-78
2022/09/30 00:16:46;;;;;;;11.70;10.15;;;8.60;99.90;;;;;;5020516;28;20041;-78
2022/09/30 00:19:12;;;;;;;12.32;11.13;;;8.60;99.90;;;;;;5007835;28;20041;-80
2022/09/30 00:21:39;;;;;;;13.63;11.75;;;8.60;99.90;;;;;;5007449;28;20052;-78
2022/09/30 00:24:06;;;;;;;12.50;11.20;;;8.50;99.90;;;;;;5007895;28;20042;-78
2022/09/30 00:26:34;;;;;;;13.30;11.90;;;8.50;99.90;;;;;;5023989;28;20088;-78
2022/09/30 00:29:00;;;;;;;12.70;10.95;;;8.50;99.90;;;;;;5007270;28;20042;-79
2022/09/30 00:31:30;;;;;;;12.65;11.43;;;8.50;99.90;;;;;;5006251;28;20100;-79
2022/09/30 00:34:05;;;;;;;13.35;11.98;;;8.50;99.90;;;;;;5010056;28;20038;-80
2022/09/30 00:36:43;;;;;;;14.38;11.48;;;8.50;99.90;;;;;;4980123;28;20040;-80
2022/09/30 00:39:17;;;;;;;13.00;11.70;;;8.50;99.90;;;;;;4989260;28;20128;-80
2022/09/30 00:41:45;;;;;;;11.52;10.43;;;8.50;99.90;;;;;;4992944;28;20042;-80
2022/09/30 00:44:49;;;;;;;13.10;11.88;;;8.40;99.90;;;;;;5025128;28;20473;-80
2022/09/30 00:47:52;;;;;;;14.60;11.73;;;8.40;99.90;;;;;;5005976;28;20104;-79
2022/09/30 00:50:23;;;;;;;13.25;11.95;;;8.40;99.90;;;;;;5025765;28;20042;-80
2022/09/30 00:52:58;;;;;;;13.60;12.20;;;8.40;99.90;;;;;;5012723;28;20044;-79
2022/09/30 00:55:45;;;;;;;13.23;11.73;;;8.40;99.90;;;;;;5029579;28;20041;-81
2022/09/30 00:58:34;;;;;;;14.00;12.52;;;8.30;99.90;;;;;;5013540;28;20047;-80
2022/09/30 01:01:01;;;;;;;13.55;12.25;;;8.40;99.90;;;;;;4998357;28;20068;-80
2022/09/30 01:03:32;;;;;;;15.30;13.18;;;8.30;99.90;;;;;;4980757;28;20127;-81
2022/09/30 01:05:58;;;;;;;17.23;14.02;;;8.30;99.90;;;;;;5000447;28;20033;-81
2022/09/30 01:08:26;;;;;;;14.85;13.23;;;8.30;99.90;;;;;;5013128;28;20099;-81
2022/09/30 01:10:52;;;;;;;13.15;11.95;;;8.30;99.90;;;;;;5029187;28;20030;-80
2022/09/30 01:13:19;;;;;;;13.38;11.95;;;8.30;99.90;;;;;;5014827;28;20075;-81
2022/09/30 01:15:51;;;;;;;13.95;12.55;;;8.20;99.90;;;;;;5029612;28;20033;-79
2022/09/30 01:18:22;;;;;;;13.63;12.07;;;8.20;99.90;;;;;;5006887;28;20037;-81
2022/09/30 01:21:23;;;;;;;13.55;12.25;;;8.20;99.90;;;;;;4995720;28;20491;-81
2022/09/30 01:24:06;;;;;;;12.80;11.60;;;8.20;99.90;;;;;;4994505;28;20041;-81
2022/09/30 01:26:32;;;;;;;13.57;12.10;;;8.20;99.90;;;;;;4997679;28;20053;-80
2022/09/30 01:29:16;;;;;;;13.43;11.27;;;8.20;99.90;;;;;;5031140;28;20402;-81
2022/09/30 01:32:03;;;;;;;12.55;11.05;;;8.20;99.90;;;;;;5030905;28;20057;-81
2022/09/30 01:34:32;;;;;;;13.35;12.05;;;8.10;99.90;;;;;;5028329;28;20036;-78
2022/09/30 01:37:36;;;;;;;12.43;11.13;;;8.10;99.90;;;;;;5014742;28;20041;-80
2022/09/30 01:40:21;;;;;;;13.57;11.77;;;8.10;99.90;;;;;;5009147;28;20213;-80
2022/09/30 01:42:56;;;;;;;14.02;12.55;;;8.10;99.90;;;;;;5029685;28;20041;-80
2022/09/30 01:45:45;;;;;;;13.05;11.70;;;8.10;99.90;;;;;;5016086;28;20049;-80
2022/09/30 01:48:24;;;;;;;15.30;12.00;;;8.00;99.90;;;;;;4994371;28;20041;-80
2022/09/30 01:51:06;;;;;;;13.52;11.75;;;8.10;99.90;;;;;;5009178;28;20080;-80
2022/09/30 01:53:56;;;;;;;13.07;11.60;;;8.00;99.90;;;;;;5030582;28;20125;-80
2022/09/30 01:56:51;;;;;;;13.80;11.18;;;8.00;99.90;;;;;;5031202;28;20033;-80
2022/09/30 01:59:35;;;;;;;13.18;11.20;;;8.00;99.90;;;;;;5010245;28;20052;-80
2022/09/30 02:02:18;;;;;;;13.25;11.85;;;7.90;99.90;;;;;;5008865;28;20053;-80
2022/09/30 02:05:06;;;;;;;13.65;11.93;;;7.90;99.90;;;;;;5029781;28;20049;-80
2022/09/30 02:08:04;;;;;;;11.63;10.38;;;7.90;99.90;;;;;;5014734;28;20065;-80
2022/09/30 02:10:34;;;;;;;11.55;10.35;;;7.90;99.90;;;;;;5011734;28;20050;-78
2022/09/30 02:13:40;;;;;;;12.93;11.60;;;7.90;99.90;;;;;;4996916;28;20375;-79
2022/09/30 02:16:14;;;;;;;12.93;11.38;;;7.80;99.90;;;;;;4991769;28;20132;-80
2022/09/30 02:18:47;;;;;;;12.45;11.25;;;7.80;99.90;;;;;;5029776;28;20140;-80
2022/09/30 02:21:18;;;;;;;12.68;11.40;;;7.80;99.90;;;;;;5029926;28;20479;-78
2022/09/30 02:23:46;;;;;;;13.95;11.32;;;7.70;99.90;;;;;;5014809;28;20033;-79
2022/09/30 02:26:25;;;;;;;13.32;11.40;;;7.70;99.90;;;;;;5028052;28;20042;-80
2022/09/30 02:29:03;;;;;;;12.63;11.32;;;7.70;99.90;;;;;;5028266;28;20038;-81
2022/09/30 02:31:33;;;;;;;13.05;11.75;;;7.70;99.90;;;;;;5013616;28;20076;-81
2022/09/30 02:34:07;;;;;;;14.00;12.50;;;7.70;99.90;;;;;;5028614;28;20287;-80
2022/09/30 02:36:49;;;;;;;13.07;11.77;;;7.60;99.90;;;;;;5030134;28;20045;-80
2022/09/30 02:39:50;;;;;;;14.93;12.20;;;7.60;99.90;;;;;;5030864;28;20045;-80
2022/09/30 02:42:21;;;;;;;14.57;12.77;;;7.60;99.90;;;;;;4967700;28;20111;-80
2022/09/30 02:44:51;;;;;;;16.50;13.75;;;7.60;99.90;;;;;;5007264;28;20054;-81
2022/09/30 02:47:52;;;;;;;17.05;13.60;;;7.60;99.90;;;;;;5005187;28;20111;-81
2022/09/30 02:50:43;;;;;;;14.35;12.55;;;7.60;99.90;;;;;;4967654;28;20058;-80
2022/09/30 02:53:18;;;;;;;15.48;12.73;;;7.60;99.90;;;;;;5003960;28;20049;-81
2022/09/30 02:56:02;;;;;;;15.80;12.68;;;7.50;99.90;;;;;;5021703;28;20499;-81
2022/09/30 02:58:29;;;;;;;15.75;13.48;;;7.50;99.90;;;;;;5004413;28;20056;-80
2022/09/30 03:00:56;;;;;;;15.27;13.55;;;7.50;99.90;;;;;;4991149;28;20073;-81
2022/09/30 03:03:47;;;;;;;15.68;13.40;;;7.50;99.90;;;;;;5005927;28;20563;-81
2022/09/30 03:06:14;;;;;;;15.40;13.82;;;7.50;99.90;;;;;;4968941;28;20086;-81
2022/09/30 03:08:40;;;;;;;15.20;13.60;;;7.50;99.90;;;;;;4977369;28;20110;-80
2022/09/30 03:11:12;;;;;;;15.40;13.80;;;7.50;99.90;;;;;;4972785;28;20455;-80
2022/09/30 03:14:21;;;;;;;14.02;12.50;;;7.50;99.90;;;;;;4973105;28;20088;-80
2022/09/30 03:17:19;;;;;;;16.92;13.70;;;7.40;99.90;;;;;;4966020;28;20053;-81
2022/09/30 03:19:56;;;;;;;17.75;13.57;;;7.40;99.90;;;;;;4977831;28;20053;-81
2022/09/30 03:22:54;;;;;;;14.05;12.55;;;7.40;99.90;;;;;;5008010;28;20038;-81
2022/09/30 03:25:45;;;;;;;17.15;13.43;;;7.40;99.90;;;;;;4978688;28;20088;-81
2022/09/30 03:28:25;;;;;;;16.50;14.57;;;7.40;99.90;;;;;;4991392;28;20095;-81
2022/09/30 03:31:11;;;;;;;18.88;14.85;;;7.30;99.90;;;;;;4988146;28;20042;-80
2022/09/30 03:34:14;;;;;;;19.60;14.65;;;7.30;99.90;;;;;;5136930;27;20396;-79
2022/09/30 03:37:07;;;;;;;15.43;13.55;;;7.30;99.90;;;;;;5103426;28;20040;-79
2022/09/30 03:39:48;;;;;;;17.20;14.55;;;7.30;99.90;;;;;;5088748;28;20051;-80
2022/09/30 03:42:25;;;;;;;18.30;15.27;;;7.30;99.90;;;;;;5083755;28;20050;-79
2022/09/30 03:45:11;;;;;;;17.23;14.25;;;7.30;99.90;;;;;;5085769;28;20449;-78
2022/09/30 03:47:44;;;;;;;17.20;13.27;;;7.30;99.90;;;;;;5083838;28;20622;-79
2022/09/30 03:50:15;;;;;;;13.23;11.82;;;7.30;99.90;;;;;;5082203;28;20576;-79
2022/09/30 03:52:41;;;;;;;13.70;12.15;;;7.30;99.90;;;;;;5087309;28;20205;-79
2022/09/30 03:55:10;;;;;;;14.60;12.95;;;7.30;99.90;;;;;;5101676;28;20043;-79
2022/09/30 03:57:36;;;;;;;14.48;12.88;;;7.30;99.90;;;;;;5069736;28;20039;-79
2022/09/30 04:00:04;;;;;;;13.20;11.82;;;7.20;99.90;;;;;;5088854;28;20046;-79
2022/09/30 04:02:30;;;;;;;14.73;12.50;;;7.20;99.90;;;;;;5097478;28;20046;-78
2022/09/30 04:04:56;;;;;;;14.57;12.38;;;7.20;99.90;;;;;;5081751;28;20484;-78
2022/09/30 04:07:22;;;;;;;13.60;12.20;;;7.10;99.90;;;;;;5085987;28;20051;-78
2022/09/30 04:09:48;;;;;;;17.58;12.73;;;7.10;99.90;;;;;;5098997;28;20472;-79
2022/09/30 04:12:13;;;;;;;13.73;11.45;;;7.10;99.90;;;;;;5087417;28;20233;-79
2022/09/30 04:14:39;;;;;;;13.88;12.45;;;7.10;99.90;;;;;;5055963;28;20040;-78
2022/09/30 04:17:05;;;;;;;14.27;12.75;;;7.00;99.90;;;;;;5099139;28;20035;-78
2022/09/30 04:19:36;;;;;;;13.05;11.73;;;7.00;99.90;;;;;;5070018;28;20379;-78
2022/09/30 04:22:02;;;;;;;16.95;12.82;;;7.00;99.90;;;;;;5083450;28;20683;-77
2022/09/30 04:24:28;;;;;;;15.57;11.93;;;7.00;99.90;;;;;;5086289;28;20080;-77
2022/09/30 04:26:54;;;;;;;11.60;10.40;;;6.90;99.90;;;;;;5104156;28;20035;-77
2022/09/30 04:29:20;;;;;;;12.38;10.85;;;6.90;99.90;;;;;;5071111;28;20043;-77
2022/09/30 04:31:46;;;;;;;14.63;11.18;;;6.80;99.90;;;;;;5100997;28;20051;-76
2022/09/30 04:34:11;;;;;;;13.20;11.43;;;6.80;99.90;;;;;;5060934;28;20049;-76
2022/09/30 04:36:37;;;;;;;12.35;11.05;;;6.80;99.90;;;;;;5087051;28;20031;-78
2022/09/30 04:39:04;;;;;;;11.90;10.60;;;6.80;99.90;;;;;;5104897;28;20032;-78
2022/09/30 04:41:31;;;;;;;15.43;12.70;;;6.80;99.90;;;;;;5107170;28;20035;-71
2022/09/30 04:43:57;;;;;;;12.60;11.30;;;6.80;99.90;;;;;;5096408;28;20096;-71
2022/09/30 04:46:22;;;;;;;14.77;11.10;;;6.70;99.90;;;;;;5049633;28;20047;-71
2022/09/30 04:48:51;;;;;;;12.57;11.02;;;6.70;99.90;;;;;;5089708;28;20110;-72
2022/09/30 04:51:18;;;;;;;11.52;10.35;;;6.60;99.90;;;;;;5074189;28;20127;-72
2022/09/30 04:53:45;;;;;;;14.52;11.18;;;6.60;99.90;;;;;;5076471;28;20052;-71
2022/09/30 04:56:12;;;;;;;13.88;11.27;;;6.60;99.90;;;;;;5077686;28;20039;-72
2022/09/30 04:58:38;;;;;;;17.08;11.63;;;6.50;99.90;;;;;;5071812;28;20039;-72
2022/09/30 05:01:06;;;;;;;14.75;11.88;;;6.50;99.90;;;;;;5087490;28;20031;-73
2022/09/30 05:03:33;;;;;;;13.88;11.90;;;6.60;99.90;;;;;;5068672;28;20044;-73
2022/09/30 05:05:59;;;;;;;16.92;11.57;;;6.50;99.90;;;;;;5085244;28;20054;-72
2022/09/30 05:08:25;;;;;;;19.25;11.80;;;6.50;99.90;;;;;;5087334;28;20035;-72
2022/09/30 05:10:59;;;;;;;21.08;12.45;;;6.50;99.90;;;;;;5071379;28;20463;-72
2022/09/30 05:13:29;;;;;;;34.45;11.88;;;6.40;99.90;;;;;;5086352;28;20480;-72
2022/09/30 05:15:55;;;;;;;21.88;10.93;;;6.40;99.90;;;;;;5071096;28;20487;-72
2022/09/30 05:18:21;;;;;;;10.13;9.10;;;6.40;99.90;;;;;;5068244;28;20067;-72
2022/09/30 05:20:51;;;;;;;9.98;8.98;;;6.30;99.90;;;;;;5072149;28;20123;-72
2022/09/30 05:23:18;;;;;;;13.25;9.38;;;6.30;99.90;;;;;;5086509;28;20413;-72
2022/09/30 05:25:45;;;;;;;13.50;10.85;;;6.20;99.90;;;;;;5044934;28;20040;-72
2022/09/30 05:28:12;;;;;;;10.82;9.40;;;6.20;99.90;;;;;;5050743;28;20079;-72
2022/09/30 05:30:40;;;;;;;12.63;10.98;;;6.10;99.90;;;;;;5074316;28;20036;-72
2022/09/30 05:33:07;;;;;;;13.65;10.55;;;6.10;99.90;;;;;;5061619;28;20060;-72
2022/09/30 05:35:34;;;;;;;13.68;11.07;;;6.10;99.90;;;;;;5082490;28;20549;-72
2022/09/30 05:38:02;;;;;;;14.27;12.07;;;6.10;99.90;;;;;;5085909;28;20043;-72
2022/09/30 05:40:29;;;;;;;13.98;11.68;;;6.10;99.90;;;;;;5085453;28;20039;-72
2022/09/30 05:42:59;;;;;;;19.75;12.95;;;6.10;99.90;;;;;;5067566;28;20043;-72
2022/09/30 05:45:25;;;;;;;17.75;13.40;;;6.00;99.90;;;;;;5071110;28;20079;-75
2022/09/30 05:47:52;;;;;;;15.65;13.02;;;6.10;99.90;;;;;;5080100;28;20036;-75
2022/09/30 05:50:19;;;;;;;17.50;12.57;;;6.10;99.90;;;;;;5061386;28;20076;-75
2022/09/30 05:52:45;;;;;;;18.02;13.77;;;6.10;99.90;;;;;;5083939;28;20128;-75
2022/09/30 05:55:11;;;;;;;21.33;14.88;;;6.10;99.90;;;;;;5062963;28;20040;-74
2022/09/30 05:57:38;;;;;;;19.90;15.35;;;6.10;99.90;;;;;;5056349;28;20043;-75
2022/09/30 06:00:06;;;;;;;20.83;16.30;;;6.20;99.90;;;;;;5040178;28;20031;-75
2022/09/30 06:02:32;;;;;;;18.70;15.70;;;6.20;99.90;;;;;;5056769;28;20189;-75
2022/09/30 06:04:58;;;;;;;20.10;15.68;;;6.30;99.90;;;;;;5040066;28;20130;-75
2022/09/30 06:07:24;;;;;;;19.23;15.68;;;6.30;99.90;;;;;;5058362;28;20043;-75
2022/09/30 06:09:49;;;;;;;23.00;16.25;;;6.30;99.90;;;;;;5056358;28;20028;-75
2022/09/30 06:12:15;;;;;;;20.05;15.40;;;6.40;99.90;;;;;;5088747;28;20401;-75
2022/09/30 06:14:41;;;;;;;19.48;13.63;;;6.40;99.90;;;;;;5073449;28;20047;-75
2022/09/30 06:17:07;;;;;;;21.95;15.35;;;6.40;99.90;;;;;;5059234;28;20418;-75
2022/09/30 06:19:33;;;;;;;19.63;15.07;;;6.40;99.90;;;;;;5075244;28;20043;-75
2022/09/30 06:21:59;;;;;;;22.08;15.27;;;6.40;99.90;;;;;;5091839;28;20123;-75
2022/09/30 06:24:25;;;;;;;20.48;14.77;;;6.40;99.90;;;;;;5070180;28;20044;-75
2022/09/30 06:26:51;;;;;;;20.33;15.15;;;6.50;99.90;;;;;;5060670;28;20040;-75
2022/09/30 06:29:18;;;;;;;19.58;14.30;;;6.50;99.90;;;;;;5052502;28;20468;-75
2022/09/30 06:31:44;;;;;;;20.05;14.55;;;6.50;99.90;;;;;;5066313;28;20582;-75
2022/09/30 06:34:09;;;;;;;21.77;16.13;;;6.50;99.90;;;;;;5052071;28;20043;-75
2022/09/30 06:36:35;;;;;;;19.67;14.25;;;6.60;99.90;;;;;;5067893;28;20100;-75
2022/09/30 06:39:02;;;;;;;19.00;14.13;;;6.60;99.90;;;;;;5058922;28;20039;-75
2022/09/30 06:41:29;;;;;;;17.60;13.55;;;6.60;99.90;;;;;;5057318;28;20071;-75
2022/09/30 06:43:56;;;;;;;20.98;14.05;;;6.70;99.90;;;;;;5079205;28;20032;-75
2022/09/30 06:46:23;;;;;;;21.00;12.95;;;6.70;99.90;;;;;;5065824;28;20457;-75
2022/09/30 06:48:57;;;;;;;19.27;12.52;;;6.80;99.90;;;;;;5079215;28;20500;-75
2022/09/30 06:51:28;;;;;;;15.88;11.90;;;6.80;99.90;;;;;;5059353;28;20431;-75
2022/09/30 06:53:55;;;;;;;20.42;12.68;;;6.90;99.90;;;;;;5063018;28;20143;-75
2022/09/30 06:56:21;;;;;;;15.77;11.00;;;6.90;99.90;;;;;;5046598;28;20047;-75
2022/09/30 06:58:47;;;;;;;14.27;11.10;;;7.00;99.90;;;;;;5060103;28;20536;-75
2022/09/30 07:01:14;;;;;;;14.38;11.13;;;7.10;99.90;;;;;;5045080;28;20043;-74
2022/09/30 07:03:43;;;;;;;16.80;11.25;;;7.10;99.90;;;;;;5078259;28;20447;-74
2022/09/30 07:06:09;;;;;;;12.93;10.57;;;7.10;99.90;;;;;;5077088;28;20095;-74
2022/09/30 07:08:37;;;;;;;14.13;10.50;;;7.20;99.90;;;;;;5061179;28;21497;-74
2022/09/30 07:11:13;;;;;;;13.00;10.38;;;7.20;99.90;;;;;;5062179;28;20072;-74
2022/09/30 07:13:48;;;;;;;12.80;9.88;;;7.30;99.90;;;;;;5079917;28;20067;-74
2022/09/30 07:16:15;;;;;;;13.13;10.07;;;7.40;99.90;;;;;;5044216;28;20431;-74
2022/09/30 07:18:41;;;;;;;15.75;11.25;;;7.40;99.90;;;;;;5061298;28;20490;-74
2022/09/30 07:21:08;;;;;;;13.38;10.30;;;7.50;99.90;;;;;;5060321;28;20120;-74
2022/09/30 07:23:35;;;;;;;12.38;9.68;;;7.50;99.90;;;;;;5078072;28;20036;-75
2022/09/30 07:26:03;;;;;;;14.35;11.10;;;7.60;99.90;;;;;;5077045;28;20039;-75
2022/09/30 07:28:35;;;;;;;13.23;10.32;;;7.70;99.90;;;;;;5062140;28;20492;-75
2022/09/30 07:31:05;;;;;;;14.55;10.48;;;7.80;99.90;;;;;;5076437;28;20046;-74
2022/09/30 07:33:32;;;;;;;14.45;10.13;;;7.80;99.90;;;;;;5061818;28;20043;-74
2022/09/30 07:35:59;;;;;;;14.90;10.02;;;7.90;99.90;;;;;;5060865;28;20036;-75
2022/09/30 07:38:28;;;;;;;14.23;10.82;;;7.90;99.90;;;;;;5058199;28;20034;-74
2022/09/30 07:41:02;;;;;;;15.13;10.80;;;8.00;99.90;;;;;;5041110;28;20116;-74
2022/09/30 07:43:39;;;;;;;15.48;11.30;;;8.10;99.90;;;;;;5078081;28;20032;-74
2022/09/30 07:46:19;;;;;;;15.63;11.82;;;8.20;99.90;;;;;;5076156;28;20429;-74
2022/09/30 07:48:49;;;;;;;15.85;11.85;;;8.20;99.90;;;;;;5081227;28;20114;-74
2022/09/30 07:51:17;;;;;;;17.83;12.77;;;8.30;99.90;;;;;;5059839;28;20040;-74
2022/09/30 07:53:46;;;;;;;18.63;12.15;;;8.40;99.90;;;;;;5082981;28;20047;-74
2022/09/30 07:56:13;;;;;;;17.85;12.48;;;8.40;99.90;;;;;;5081539;28;20574;-73
2022/09/30 07:58:39;;;;;;;17.20;12.75;;;8.50;99.90;;;;;;5078515;28;20524;-73
2022/09/30 08:01:06;;;;;;;19.55;13.13;;;8.60;99.90;;;;;;5034308;28;20119;-73
2022/09/30 08:03:38;;;;;;;18.40;13.57;;;8.70;99.90;;;;;;5080528;28;20052;-73
2022/09/30 08:06:09;;;;;;;19.08;13.48;;;8.80;99.90;;;;;;5052561;28;20035;-73
2022/09/30 08:08:36;;;;;;;19.80;13.57;;;8.90;99.90;;;;;;5081842;28;20405;-74
2022/09/30 08:11:05;;;;;;;18.80;13.65;;;9.00;99.90;;;;;;5080948;28;20074;-74
2022/09/30 08:13:31;;;;;;;19.88;13.68;;;9.20;99.90;;;;;;5046461;28;20067;-74
2022/09/30 08:15:57;;;;;;;18.48;13.25;;;9.40;99.90;;;;;;5060496;28;20067;-73
2022/09/30 08:18:23;;;;;;;18.10;11.95;;;9.60;99.90;;;;;;5043890;28;20053;-73
2022/09/30 08:20:49;;;;;;;18.02;12.85;;;9.80;99.90;;;;;;5070564;28;20032;-73
2022/09/30 08:23:15;;;;;;;19.13;12.45;;;10.00;99.90;;;;;;5052380;28;20031;-73
2022/09/30 08:25:41;;;;;;;15.27;11.35;;;10.10;99.90;;;;;;5069925;28;20507;-73
2022/09/30 08:28:07;;;;;;;13.95;10.60;;;10.20;99.90;;;;;;5068995;28;20512;-73
2022/09/30 08:30:37;;;;;;;14.38;10.00;;;10.30;99.90;;;;;;5050438;28;20087;-72
2022/09/30 08:33:04;;;;;;;16.85;10.35;;;10.50;99.90;;;;;;5086240;28;20051;-71
2022/09/30 08:35:29;;;;;;;14.45;11.90;;;10.60;99.90;;;;;;5086573;28;20567;-71
2022/09/30 08:37:56;;;;;;;13.10;10.43;;;10.70;99.90;;;;;;5067574;28;20039;-71
2022/09/30 08:40:33;;;;;;;15.20;10.88;;;10.90;99.90;;;;;;5085124;28;20032;-71
2022/09/30 08:43:11;;;;;;;12.27;9.85;;;11.00;99.90;;;;;;5086706;28;20031;-70
2022/09/30 08:46:16;;;;;;;13.73;10.20;;;11.10;99.90;;;;;;5083902;28;20570;-71
2022/09/30 08:49:06;;;;;;;12.93;10.32;;;11.30;99.90;;;;;;5059940;28;20057;-71
2022/09/30 08:51:42;;;;;;;12.85;9.85;;;11.40;99.90;;;;;;5066553;28;20511;-72
2022/09/30 08:54:14;;;;;;;12.30;10.55;;;11.60;99.90;;;;;;5084403;28;20031;-71
2022/09/30 08:56:42;;;;;;;11.45;9.02;;;11.80;99.90;;;;;;5102971;28;20677;-71
2022/09/30 08:59:40;;;;;;;12.63;10.02;;;12.00;99.90;;;;;;5085065;28;20543;-71
2022/09/30 09:02:16;;;;;;;12.48;9.85;;;12.10;99.90;;;;;;5083519;28;20044;-71
2022/09/30 09:04:42;;;;;;;11.70;8.70;;;12.30;99.90;;;;;;5086414;28;20085;-69
2022/09/30 09:07:25;;;;;;;9.55;8.38;;;12.50;99.90;;;;;;5081118;28;20151;-71
2022/09/30 09:10:18;;;;;;;11.98;8.63;;;12.60;99.90;;;;;;5084202;28;20131;-71
2022/09/30 09:13:01;;;;;;;9.82;8.38;;;12.80;99.90;;;;;;5085200;28;20118;-71
2022/09/30 09:15:54;;;;;;;11.30;7.97;;;13.00;99.90;;;;;;5082579;28;20039;-71
2022/09/30 09:18:50;;;;;;;7.97;7.13;;;13.20;99.90;;;;;;5079738;28;20028;-71
2022/09/30 09:21:35;;;;;;;8.63;7.72;;;13.30;99.90;;;;;;5086318;28;20079;-71
2022/09/30 09:24:02;;;;;;;7.30;6.60;;;13.50;99.90;;;;;;5062771;28;20075;-71
2022/09/30 09:26:35;;;;;;;7.35;6.53;;;13.70;99.90;;;;;;5084448;28;20031;-71
2022/09/30 09:29:23;;;;;;;8.35;7.13;;;13.70;99.90;;;;;;5085195;28;20483;-71
2022/09/30 09:31:49;;;;;;;7.50;6.20;;;13.80;99.90;;;;;;5080415;28;20056;-71
2022/09/30 09:34:14;;;;;;;6.97;5.15;;;13.90;99.90;;;;;;5065607;28;20098;-71
2022/09/30 09:36:49;;;;;;;6.32;5.38;;;14.00;99.90;;;;;;5062616;28;20036;-71
2022/09/30 09:39:20;;;;;;;7.15;6.00;;;14.10;99.90;;;;;;5057842;28;20046;-71
2022/09/30 09:41:52;;;;;;;7.10;6.17;;;14.20;99.90;;;;;;5067591;28;20035;-71
2022/09/30 09:44:29;;;;;;;8.13;6.38;;;14.30;99.90;;;;;;5081751;28;20044;-71
2022/09/30 09:47:03;;;;;;;14.02;6.43;;;14.30;99.90;;;;;;5081996;28;20820;-71
2022/09/30 09:49:37;;;;;;;8.13;7.25;;;14.40;99.90;;;;;;5081448;28;20047;-71
2022/09/30 09:52:11;;;;;;;9.35;6.80;;;14.60;99.90;;;;;;5089761;28;20122;-71
2022/09/30 09:54:44;;;;;;;7.97;6.28;;;14.80;99.90;;;;;;5079759;28;20047;-70
2022/09/30 09:57:16;;;;;;;8.70;6.68;;;15.00;99.90;;;;;;5076584;28;20561;-70
2022/09/30 10:03:04;;;;;;;18.48;10.07;;;15.10;99.90;;;;;;5089407;28;20523;-71
2022/09/30 10:05:38;;;;;;;7.17;6.43;;;15.10;99.90;;;;;;5084093;28;20089;-70
2022/09/30 10:08:08;;;;;;;8.50;6.82;;;15.10;99.90;;;;;;5081804;28;21599;-71
2022/09/30 10:10:48;;;;;;;8.65;6.32;;;15.30;99.90;;;;;;5081748;28;20039;-69
2022/09/30 10:13:18;;;;;;;10.43;6.90;;;15.30;99.90;;;;;;5081808;28;20450;-68
2022/09/30 10:15:45;;;;;;;7.88;6.97;;;15.30;99.90;;;;;;5082973;28;20584;-71
2022/09/30 10:18:35;;;;;;;9.88;8.43;;;15.40;99.90;;;;;;5049780;28;20105;-71
2022/09/30 10:21:18;;;;;;;8.20;7.40;;;15.60;99.90;;;;;;5082731;28;20044;-71
2022/09/30 10:23:43;;;;;;;;;;;15.80;99.90;;;;;;5066972;28;20044;-70
2022/09/30 10:26:21;;;;;;;8.80;7.90;;;15.80;99.90;;;;;;5083357;28;19916;-71
2022/09/30 10:28:56;;;;;;;11.20;8.40;;;15.80;99.90;;;;;;5077336;28;20119;-71
2022/09/30 10:31:36;;;;;;;8.80;7.82;;;16.00;99.90;;;;;;5091420;28;20056;-71
2022/09/30 10:34:28;;;;;;;9.38;8.05;;;16.00;99.90;;;;;;5082706;28;20051;-71
2022/09/30 10:36:55;;;;;;;16.48;9.25;;;16.00;99.90;;;;;;5074688;28;20062;-70
2022/09/30 10:39:39;;;;;;;11.20;9.63;;;16.00;99.90;;;;;;5066391;28;20032;-70
2022/09/30 10:42:14;;;;;;;9.80;8.80;;;16.00;99.90;;;;;;5066268;28;20598;-70
2022/09/30 10:44:48;;;;;;;16.42;10.30;;;16.00;99.90;;;;;;5099009;28;20123;-70
2022/09/30 10:47:17;;;;;;;11.10;9.80;;;16.10;99.90;;;;;;5081920;28;20044;-70
2022/09/30 10:49:50;;;;;;;11.65;10.50;;;16.10;99.90;;;;;;5062824;28;20031;-70
2022/09/30 10:52:28;;;;;;;13.77;10.80;;;16.20;99.90;;;;;;5084703;28;20034;-70
2022/09/30 10:54:56;;;;;;;11.02;9.88;;;16.30;99.90;;;;;;5062081;28;20040;-70
2022/09/30 10:57:31;;;;;;;11.55;10.20;;;16.40;99.90;;;;;;5077937;28;20412;-70
2022/09/30 11:00:21;;;;;;;11.63;10.25;;;16.40;99.90;;;;;;5078878;28;20139;-70
2022/09/30 11:02:59;;;;;;;11.10;9.13;;;16.60;99.90;;;;;;5080557;28;20047;-70
2022/09/30 11:05:29;;;;;;;12.60;9.35;;;16.70;99.90;;;;;;5082553;28;20424;-70
2022/09/30 11:08:32;;;;;;;10.27;8.63;;;16.80;99.90;;;;;;5061482;28;20447;-70
2022/09/30 11:11:08;;;;;;;10.93;8.85;;;16.80;99.90;;;;;;5083997;28;20458;-70
2022/09/30 11:14:08;;;;;;;13.75;8.80;;;16.80;99.90;;;;;;5081083;28;20051;-70
2022/09/30 11:16:46;;;;;;;10.27;9.02;;;16.80;99.90;;;;;;5081774;28;20161;-70
2022/09/30 11:19:44;;;;;;;8.88;7.55;;;16.90;99.90;;;;;;5082124;28;20193;-69
2022/09/30 11:22:27;;;;;;;9.32;7.40;;;17.00;99.90;;;;;;5085850;28;20357;-69
2022/09/30 11:24:54;;;;;;;12.25;8.07;;;16.90;99.90;;;;;;5082794;28;20507;-69
2022/09/30 11:27:38;;;;;;;8.68;7.38;;;16.90;99.90;;;;;;5080912;28;20046;-70
2022/09/30 11:30:18;;;;;;;13.05;8.32;;;17.10;99.90;;;;;;5084818;28;20198;-68
2022/09/30 11:33:06;;;;;;;11.85;8.40;;;17.20;99.90;;;;;;5084039;28;20100;-72
2022/09/30 11:35:47;;;;;;;10.13;8.27;;;17.10;99.90;;;;;;5080643;28;20028;-71
2022/09/30 11:38:35;;;;;;;9.30;7.97;;;17.00;99.90;;;;;;5076445;28;20044;-71
2022/09/30 11:41:17;;;;;;;10.00;8.90;;;17.00;99.90;;;;;;5075974;28;20051;-69
2022/09/30 11:44:08;;;;;;;10.73;8.23;;;17.00;99.90;;;;;;5072504;28;20105;-70
2022/09/30 11:47:03;;;;;;;13.70;9.82;;;17.00;99.90;;;;;;5089945;28;20350;-72
2022/09/30 11:49:48;;;;;;;11.30;9.52;;;17.10;99.90;;;;;;5064745;28;20079;-71
2022/09/30 11:52:22;;;;;;;14.57;10.80;;;17.10;99.90;;;;;;5074795;28;20028;-71
2022/09/30 11:55:14;;;;;;;10.13;9.07;;;17.00;99.90;;;;;;5061390;28;20035;-71
2022/09/30 11:58:00;;;;;;;12.73;11.35;;;17.00;99.90;;;;;;5063950;28;20037;-72
2022/09/30 12:00:27;;;;;;;14.95;11.85;;;17.20;99.90;;;;;;5081195;28;20124;-72
2022/09/30 12:03:00;;;;;;;14.25;11.30;;;17.20;99.90;;;;;;5081999;28;20044;-72
2022/09/30 12:05:57;;;;;;;13.63;11.95;;;17.20;99.90;;;;;;5081521;28;20055;-71
2022/09/30 12:08:34;;;;;;;14.57;11.95;;;17.20;99.90;;;;;;5081059;28;20092;-72
2022/09/30 12:11:10;;;;;;;13.23;11.25;;;17.20;99.90;;;;;;5094882;28;20040;-73
2022/09/30 12:13:56;;;;;;;14.40;12.43;;;17.20;99.90;;;;;;5079480;28;20050;-72
2022/09/30 12:16:28;;;;;;;13.43;11.10;;;17.00;99.90;;;;;;5079186;28;20465;-71
2022/09/30 12:18:56;;;;;;;13.10;11.60;;;17.00;99.90;;;;;;5061427;28;20047;-69
2022/09/30 12:21:29;;;;;;;16.02;10.90;;;17.10;99.90;;;;;;5094871;28;20035;-69
2022/09/30 12:23:58;;;;;;;14.40;11.35;;;16.90;99.90;;;;;;5079795;28;20039;-70
2022/09/30 12:26:24;;;;;;;14.07;10.73;;;16.90;99.90;;;;;;5086045;28;20131;-70
2022/09/30 12:32:20;;;;;;;15.32;11.55;;;17.20;99.90;;;;;;5024851;28;20136;-71
2022/09/30 12:35:04;;;;;;;13.93;11.20;;;17.30;99.90;;;;;;5040822;28;20535;-70
2022/09/30 12:37:56;;;;;;;14.02;10.80;;;17.40;99.90;;;;;;5039786;28;20045;-70
2022/09/30 12:40:32;;;;;;;11.10;9.85;;;17.40;99.90;;;;;;5051375;28;20064;-69
2022/09/30 12:43:34;;;;;;;18.35;13.60;;;17.50;99.90;;;;;;5063003;28;20157;-70
2022/09/30 12:46:23;;;;;;;13.25;10.10;;;17.30;99.90;;;;;;5005724;28;20050;-71
2022/09/30 12:48:54;;;;;;;11.13;8.98;;;17.30;99.90;;;;;;5063338;28;20127;-72
2022/09/30 12:51:30;;;;;;;12.30;9.40;;;17.20;99.90;;;;;;5070353;28;20047;-70
2022/09/30 12:54:12;;;;;;;10.98;8.90;;;17.10;99.90;;;;;;5070143;28;20475;-73
2022/09/30 12:56:41;;;;;;;9.40;7.95;;;17.00;99.90;;;;;;5069633;28;20050;-72
2022/09/30 12:59:08;;;;;;;9.27;7.82;;;17.00;99.90;;;;;;5048825;28;21810;-72
2022/09/30 13:01:39;;;;;;;10.80;8.77;;;17.10;99.90;;;;;;5054573;28;20068;-72
2022/09/30 13:04:04;;;;;;;11.43;9.65;;;17.30;99.90;;;;;;5068351;28;20032;-71
2022/09/30 13:06:46;;;;;;;12.70;9.50;;;17.30;99.90;;;;;;5051573;28;20507;-72
2022/09/30 13:09:28;;;;;;;12.93;10.13;;;17.30;99.90;;;;;;5068875;28;20504;-72
2022/09/30 13:11:53;;;;;;;12.38;9.68;;;17.10;99.30;;;;;;5075179;28;20032;-73
2022/09/30 13:14:42;;;;;;;11.73;9.10;;;17.00;99.90;;;;;;5068594;28;20094;-73
2022/09/30 13:17:11;;;;;;;12.43;9.30;;;16.80;99.10;;;;;;5054305;28;20063;-74
2022/09/30 13:19:52;;;;;;;11.80;9.75;;;16.90;99.90;;;;;;5068915;28;20070;-73
2022/09/30 13:22:17;;;;;;;14.02;10.88;;;16.90;99.70;;;;;;5088697;28;20036;-74